Terminal Aerodrome Forecast
Issued by NWS Blacksburg, VA

Home | Current Version | Previous Version | Text Only | Print | Product List | Glossary On
Versions: 1 2 3 4 5 6 7 8 9 10 11 12 13 14 15 16 17 18 19 20 21 22
000
FTUS41 KRNK 261130
TAFDAN
TAF
KDAN 261130Z 2612/2712 20005KT P6SM SCT015 BKN050
      TEMPO 2612/2615 BKN015
     FM261500 21010G17KT P6SM SCT035 BKN050 BKN250
     FM270000 20005KT P6SM SCT060 BKN150=

USA.gov is the U.S. government's official web portal to all federal, state and local government web resources and services.